Time;durP1;ratioP1;P1;durP2;ratioP2;P2;SDS_P1;SDS_P2;PMS_P1;PMS_P2;Temp;Humidity;BMP_temperature;BMP_pressure;BME280_temperature;BME280_humidity;BME280_pressure;Samples;Min_cycle;Max_cycle;Signal;HPM_P1;HPM_P2
2020/12/11 00:02:22;;;;;;;60.47;27.77;;;;;;;-0.63;92.56;100153.53;5007263;28;20499;-73
2020/12/11 00:04:48;;;;;;;54.40;27.42;;;;;;;-0.60;92.60;100149.44;5007114;28;20277;-74
2020/12/11 00:07:13;;;;;;;60.08;29.92;;;;;;;-0.60;92.82;100141.88;5006403;28;20049;-74
2020/12/11 00:09:38;;;;;;;55.47;29.17;;;;;;;-0.59;92.72;100146.13;5007117;28;20473;-71
2020/12/11 00:12:04;;;;;;;64.85;29.15;;;;;;;-0.59;93.11;100141.09;5007239;28;20041;-72
2020/12/11 00:14:29;;;;;;;57.87;29.27;;;;;;;-0.63;93.07;100127.44;5005927;28;20018;-73
2020/12/11 00:16:54;;;;;;;56.60;28.93;;;;;;;-0.64;92.83;100139.19;5007199;28;20877;-72
2020/12/11 00:19:20;;;;;;;64.40;30.73;;;;;;;-0.63;92.96;100133.34;5005730;28;20288;-72
2020/12/11 00:21:45;;;;;;;56.97;27.55;;;;;;;-0.63;92.82;100137.53;5007793;28;20883;-71
2020/12/11 00:24:11;;;;;;;61.83;30.27;;;;;;;-0.60;92.71;100131.78;5007317;28;20050;-74
2020/12/11 00:26:37;;;;;;;62.30;31.53;;;;;;;-0.57;92.95;100134.47;5006253;28;20372;-72
2020/12/11 00:29:03;;;;;;;59.30;28.08;;;;;;;-0.54;92.74;100132.13;5007183;28;20028;-70
2020/12/11 00:31:29;;;;;;;53.28;26.13;;;;;;;-0.55;92.66;100127.88;5006192;28;20134;-72
2020/12/11 00:33:54;;;;;;;59.97;28.73;;;;;;;-0.54;92.30;100125.44;5007466;28;20555;-73
2020/12/11 00:36:24;;;;;;;55.70;28.08;;;;;;;-0.56;92.36;100119.44;5006413;28;20063;-73
2020/12/11 00:38:50;;;;;;;59.37;27.77;;;;;;;-0.54;92.55;100120.38;5004397;28;20082;-73
2020/12/11 00:41:15;;;;;;;57.78;28.13;;;;;;;-0.54;92.38;100109.41;5007154;28;20038;-73
2020/12/11 00:43:40;;;;;;;54.72;29.23;;;;;;;-0.54;92.08;100101.84;5005781;28;20113;-73
2020/12/11 00:46:06;;;;;;;62.65;28.45;;;;;;;-0.54;92.48;100099.34;5006081;28;20037;-73
2020/12/11 00:48:31;;;;;;;51.40;27.85;;;;;;;-0.57;92.47;100081.50;5005818;28;20061;-71
2020/12/11 00:50:57;;;;;;;60.05;29.02;;;;;;;-0.59;92.30;100081.44;5005655;28;20059;-73
2020/12/11 00:53:22;;;;;;;55.05;28.30;;;;;;;-0.56;92.35;100070.63;5007035;28;20026;-74
2020/12/11 00:55:48;;;;;;;58.38;28.05;;;;;;;-0.55;92.05;100069.84;5007256;28;20534;-73
2020/12/11 00:58:13;;;;;;;53.22;27.08;;;;;;;-0.56;92.13;100050.44;5005845;28;20483;-73
2020/12/11 01:00:39;;;;;;;54.58;27.50;;;;;;;-0.53;92.29;100055.66;5005705;28;20038;-73
2020/12/11 01:03:04;;;;;;;51.10;28.08;;;;;;;-0.53;91.98;100054.00;5004257;28;20479;-71
2020/12/11 01:05:30;;;;;;;53.20;27.23;;;;;;;-0.55;92.19;100042.09;5005574;28;20093;-73
2020/12/11 01:07:55;;;;;;;49.28;24.90;;;;;;;-0.54;92.16;100036.28;5006357;28;20049;-71
2020/12/11 01:10:20;;;;;;;60.88;28.40;;;;;;;-0.55;92.40;100035.41;5005662;28;20079;-73
2020/12/11 01:12:46;;;;;;;56.23;26.13;;;;;;;-0.56;92.02;100032.81;5006730;28;20541;-73
2020/12/11 01:15:11;;;;;;;52.30;26.77;;;;;;;-0.55;91.88;100024.44;5005326;28;20277;-71
2020/12/11 01:17:37;;;;;;;53.00;25.52;;;;;;;-0.59;92.05;100028.47;5005587;28;20030;-73
2020/12/11 01:20:03;;;;;;;51.70;26.17;;;;;;;-0.61;92.12;100011.50;5006776;28;20495;-73
2020/12/11 01:22:28;;;;;;;56.23;26.50;;;;;;;-0.65;92.15;99997.88;5005194;28;20025;-72
2020/12/11 01:24:54;;;;;;;59.90;27.95;;;;;;;-0.65;92.17;99988.66;5006513;28;20059;-73
2020/12/11 01:27:19;;;;;;;54.67;27.25;;;;;;;-0.65;92.20;99977.69;5006453;28;20036;-71
2020/12/11 01:29:44;;;;;;;51.10;24.92;;;;;;;-0.63;92.12;99974.47;5006681;28;20051;-71
2020/12/11 01:32:10;;;;;;;52.28;26.70;;;;;;;-0.62;92.08;99972.81;5005304;28;20022;-73
2020/12/11 01:34:35;;;;;;;49.60;25.42;;;;;;;-0.58;91.67;99964.63;5006367;28;20510;-73
2020/12/11 01:37:05;;;;;;;48.30;25.83;;;;;;;-0.61;91.84;99954.38;5005668;28;20044;-73
2020/12/11 01:39:31;;;;;;;49.23;24.73;;;;;;;-0.62;91.93;99960.19;5004576;28;20050;-73
2020/12/11 01:41:57;;;;;;;49.30;25.50;;;;;;;-0.65;91.20;99953.34;5006393;28;20071;-73
2020/12/11 01:44:22;;;;;;;51.28;25.40;;;;;;;-0.64;91.52;99950.03;5004963;28;20043;-73
2020/12/11 01:46:49;;;;;;;54.97;27.63;;;;;;;-0.65;91.80;99949.94;5006251;28;20032;-70
2020/12/11 01:49:14;;;;;;;52.53;27.07;;;;;;;-0.68;91.57;99942.19;5006301;28;20018;-73
2020/12/11 01:51:40;;;;;;;50.90;27.75;;;;;;;-0.65;91.62;99949.94;5006117;28;20498;-71
2020/12/11 01:54:06;;;;;;;55.22;29.38;;;;;;;-0.68;91.58;99942.19;5004818;28;20048;-73
2020/12/11 01:56:40;;;;;;;52.53;26.17;;;;;;;-0.67;91.46;99943.94;5005057;28;20018;-73
2020/12/11 01:59:12;;;;;;;50.47;24.73;;;;;;;-0.66;91.54;99930.53;5006278;28;20037;-72
2020/12/11 02:01:38;;;;;;;49.37;25.30;;;;;;;-0.70;91.78;99941.25;5005747;28;20036;-73
2020/12/11 02:04:07;;;;;;;51.13;26.58;;;;;;;-0.71;91.44;99937.84;5006235;28;20042;-73
2020/12/11 02:06:33;;;;;;;50.40;27.40;;;;;;;-0.72;91.77;99938.63;5006320;28;20036;-73
2020/12/11 02:08:58;;;;;;;52.53;27.20;;;;;;;-0.70;91.45;99939.59;5005802;28;20387;-72
2020/12/11 02:11:24;;;;;;;48.42;25.40;;;;;;;-0.72;91.65;99942.81;5004684;28;20022;-73
2020/12/11 02:13:50;;;;;;;55.38;25.23;;;;;;;-0.71;91.71;99935.31;5004760;28;20026;-72
2020/12/11 02:16:23;;;;;;;55.97;27.23;;;;;;;-0.71;91.57;99942.91;5005755;28;20083;-71
2020/12/11 02:18:49;;;;;;;52.27;25.73;;;;;;;-0.68;91.66;99938.00;5005899;28;20029;-72
2020/12/11 02:21:15;;;;;;;43.43;25.33;;;;;;;-0.67;91.71;99934.69;5005285;28;20034;-73
2020/12/11 02:23:44;;;;;;;47.00;25.80;;;;;;;-0.67;91.34;99932.19;5005768;28;20491;-74
2020/12/11 02:26:10;;;;;;;55.03;24.90;;;;;;;-0.68;91.35;99929.59;5002316;28;20022;-73
2020/12/11 02:28:36;;;;;;;49.28;26.73;;;;;;;-0.68;91.16;99917.84;5005909;28;20021;-72
2020/12/11 02:31:03;;;;;;;53.15;25.67;;;;;;;-0.73;91.41;99914.22;5004348;28;20030;-73
2020/12/11 02:33:28;;;;;;;50.03;25.07;;;;;;;-0.71;91.56;99916.81;5004087;28;20037;-71
2020/12/11 02:35:54;;;;;;;48.25;25.35;;;;;;;-0.70;91.70;99908.47;5005812;28;20391;-72
2020/12/11 02:38:19;;;;;;;47.13;25.52;;;;;;;-0.68;91.08;99902.72;5006377;28;20026;-72
2020/12/11 02:40:50;;;;;;;53.92;25.95;;;;;;;-0.69;90.79;99895.94;5004548;28;20498;-73
2020/12/11 02:43:16;;;;;;;55.20;26.17;;;;;;;-0.64;91.52;99888.63;5003622;28;20131;-74
2020/12/11 02:45:44;;;;;;;;;;;;;;;-0.66;90.83;99890.19;5006114;28;20030;-74
2020/12/11 02:48:09;;;;;;;47.45;23.95;;;;;;;-0.63;91.32;99898.81;5004167;28;19925;-72
2020/12/11 02:50:34;;;;;;;43.20;21.95;;;;;;;-0.55;90.87;99889.09;5005580;28;20029;-73
2020/12/11 02:52:59;;;;;;;47.67;24.05;;;;;;;-0.52;90.71;99893.44;5004178;28;20041;-72
2020/12/11 02:55:25;;;;;;;45.67;25.03;;;;;;;-0.51;90.68;99890.13;5004119;28;20034;-75
2020/12/11 02:57:51;;;;;;;48.20;25.15;;;;;;;-0.49;91.17;99891.06;5004349;28;20281;-73
2020/12/11 03:00:16;;;;;;;50.20;23.90;;;;;;;-0.48;90.58;99883.59;5004292;28;20401;-73
2020/12/11 03:02:41;;;;;;;46.33;24.27;;;;;;;-0.43;90.79;99868.69;5003927;28;20030;-74
2020/12/11 03:05:06;;;;;;;49.57;25.17;;;;;;;-0.41;90.63;99846.91;5004052;28;20292;-71
2020/12/11 03:07:32;;;;;;;44.65;24.63;;;;;;;-0.34;90.28;99833.81;5005870;28;20058;-73
2020/12/11 03:09:57;;;;;;;46.05;24.30;;;;;;;-0.27;89.66;99828.31;5004532;28;20022;-73
2020/12/11 03:12:22;;;;;;;38.92;20.52;;;;;;;-0.21;89.32;99821.03;5005281;28;20057;-72
2020/12/11 03:14:47;;;;;;;38.73;20.20;;;;;;;-0.20;88.42;99826.97;5008158;28;20041;-72
2020/12/11 03:17:13;;;;;;;45.20;23.37;;;;;;;-0.20;88.96;99815.22;5008415;28;20283;-71
2020/12/11 03:19:38;;;;;;;38.58;22.38;;;;;;;-0.22;89.31;99798.25;5008435;28;20025;-72
2020/12/11 03:22:03;;;;;;;38.57;21.70;;;;;;;-0.21;89.07;99783.19;5008640;28;20018;-71
2020/12/11 03:24:29;;;;;;;37.23;21.37;;;;;;;-0.18;89.08;99775.78;5007218;28;20311;-71
2020/12/11 03:26:54;;;;;;;36.57;20.27;;;;;;;-0.20;88.50;99791.63;5007335;28;20269;-73
2020/12/11 03:29:19;;;;;;;42.25;23.67;;;;;;;-0.22;88.70;99783.97;5007168;28;20420;-71
2020/12/11 03:31:44;;;;;;;38.60;20.80;;;;;;;-0.24;88.94;99780.53;5008329;28;20034;-73
2020/12/11 03:34:09;;;;;;;40.83;20.90;;;;;;;-0.28;89.48;99785.34;5006845;28;20026;-72
2020/12/11 03:36:35;;;;;;;41.73;24.13;;;;;;;-0.26;89.31;99781.25;5008619;28;20299;-72
2020/12/11 03:39:00;;;;;;;41.20;23.07;;;;;;;-0.29;89.37;99766.81;5007689;28;20301;-70
2020/12/11 03:41:25;;;;;;;41.10;23.00;;;;;;;-0.29;88.72;99766.81;5008525;28;20346;-73
2020/12/11 03:43:50;;;;;;;40.13;24.07;;;;;;;-0.28;89.21;99753.41;5007000;28;20283;-72
2020/12/11 03:46:22;;;;;;;36.58;20.80;;;;;;;-0.25;88.69;99743.47;5007140;28;20445;-73
2020/12/11 03:48:49;;;;;;;35.80;21.97;;;;;;;-0.22;88.96;99745.25;5008413;28;20037;-72
2020/12/11 03:51:18;;;;;;;42.57;21.63;;;;;;;-0.23;88.89;99744.41;5007806;28;20117;-71
2020/12/11 03:53:45;;;;;;;38.33;21.47;;;;;;;-0.29;88.97;99744.09;5006695;28;20029;-73
2020/12/11 03:56:11;;;;;;;;;;;;;;;-0.26;89.31;99733.28;5007261;28;20026;-73
2020/12/11 03:58:38;;;;;;;37.85;21.38;;;;;;;-0.28;88.69;99725.66;5007889;28;19918;-72
2020/12/11 04:01:03;;;;;;;;;;;;;;;-0.23;88.68;99719.16;5008274;28;20454;-74
2020/12/11 04:03:28;;;;;;;37.73;21.33;;;;;;;-0.27;89.06;99714.75;5007665;28;19919;-72
2020/12/11 04:05:53;;;;;;;37.75;21.20;;;;;;;-0.27;89.15;99709.72;5006594;28;20033;-73
2020/12/11 04:08:18;;;;;;;37.83;19.33;;;;;;;-0.21;89.06;99699.91;5008466;28;20026;-73
2020/12/11 04:10:44;;;;;;;35.73;18.73;;;;;;;-0.16;88.76;99693.41;5007972;28;20025;-74
2020/12/11 04:13:09;;;;;;;39.33;21.20;;;;;;;-0.09;88.91;99689.53;5007494;28;20026;-74
2020/12/11 04:15:34;;;;;;;39.87;21.97;;;;;;;-0.12;89.04;99677.63;5006381;28;20033;-74
2020/12/11 04:17:59;;;;;;;37.07;19.47;;;;;;;-0.06;88.09;99684.63;5006408;28;20667;-74
2020/12/11 04:20:25;;;;;;;34.07;19.53;;;;;;;-0.02;88.29;99669.69;5006398;28;20285;-73
2020/12/11 04:22:50;;;;;;;36.30;21.07;;;;;;;0.01;88.20;99665.59;5005804;28;20786;-74
2020/12/11 04:25:15;;;;;;;32.45;19.48;;;;;;;0.00;88.07;99657.16;5006650;28;20030;-72
2020/12/11 04:27:41;;;;;;;36.58;20.90;;;;;;;0.02;88.08;99648.00;5007569;28;20014;-72
2020/12/11 04:30:06;;;;;;;34.92;20.88;;;;;;;0.03;88.04;99651.38;5007554;28;20095;-73
2020/12/11 04:32:31;;;;;;;34.53;20.33;;;;;;;0.09;88.18;99649.13;5006123;28;20116;-74
2020/12/11 04:34:56;;;;;;;38.57;20.33;;;;;;;0.11;87.78;99650.06;5007367;28;20277;-73
2020/12/11 04:37:21;;;;;;;36.72;19.52;;;;;;;0.15;88.13;99646.88;5007569;28;20037;-74
2020/12/11 04:39:47;;;;;;;32.03;18.87;;;;;;;0.14;88.06;99643.50;5007676;28;20026;-72
2020/12/11 04:42:12;;;;;;;34.15;19.52;;;;;;;0.14;87.62;99635.91;5005963;28;20059;-73
2020/12/11 04:44:39;;;;;;;35.30;20.13;;;;;;;0.20;88.02;99623.56;5007191;28;20053;-73
2020/12/11 04:47:07;;;;;;;35.72;20.33;;;;;;;0.24;87.62;99617.00;5007286;28;20496;-73
2020/12/11 04:49:36;;;;;;;36.53;20.07;;;;;;;0.20;87.21;99622.69;5007233;28;20090;-71
2020/12/11 04:52:05;;;;;;;34.93;22.40;;;;;;;0.23;87.67;99625.38;5007066;28;20036;-73
2020/12/11 04:54:36;;;;;;;37.23;21.33;;;;;;;0.24;87.24;99615.31;5005745;28;20082;-74
2020/12/11 04:57:02;;;;;;;33.20;18.87;;;;;;;0.25;87.38;99616.19;5007236;28;20419;-73
2020/12/11 04:59:27;;;;;;;37.50;20.60;;;;;;;0.27;87.08;99610.41;5005707;28;20026;-74
2020/12/11 05:01:58;;;;;;;31.98;18.75;;;;;;;0.28;87.03;99607.09;5006963;28;20037;-73
2020/12/11 05:04:25;;;;;;;36.23;19.60;;;;;;;0.27;86.95;99595.25;5005435;28;20066;-72
2020/12/11 05:06:51;;;;;;;34.40;20.10;;;;;;;0.30;87.37;99597.06;5007115;28;20461;-74
2020/12/11 05:09:19;;;;;;;31.55;19.55;;;;;;;0.29;87.73;99591.13;5007646;28;20209;-73
2020/12/11 05:11:45;;;;;;;34.00;20.63;;;;;;;0.27;87.44;99581.75;5005377;28;20079;-73
2020/12/11 05:14:37;;;;;;;33.67;19.60;;;;;;;0.31;87.45;99576.91;5005723;28;20418;-73
2020/12/11 05:17:05;;;;;;;33.40;20.33;;;;;;;0.33;87.33;99568.56;5003726;28;20029;-73
2020/12/11 05:19:48;;;;;;;36.50;20.93;;;;;;;0.33;87.50;99571.97;5006590;28;20029;-74
2020/12/11 05:22:13;;;;;;;35.00;19.87;;;;;;;0.35;87.50;99557.72;5003429;28;20032;-73
2020/12/11 05:24:44;;;;;;;31.92;19.48;;;;;;;0.36;86.79;99553.53;5005479;28;20407;-73
2020/12/11 05:27:38;;;;;;;29.67;19.00;;;;;;;0.37;87.53;99556.13;5006705;28;20030;-72
2020/12/11 05:30:06;;;;;;;33.27;19.20;;;;;;;0.37;87.51;99555.28;5006501;28;20047;-73
2020/12/11 05:32:45;;;;;;;33.70;18.60;;;;;;;0.38;87.38;99547.75;5006444;28;20025;-73
2020/12/11 05:35:22;;;;;;;32.93;18.43;;;;;;;0.39;87.47;99538.53;5004638;28;20029;-72
2020/12/11 05:37:49;;;;;;;35.70;21.83;;;;;;;0.37;87.73;99538.44;5005160;28;20106;-73
2020/12/11 05:40:35;;;;;;;36.40;20.07;;;;;;;0.39;87.90;99539.38;5006705;28;20147;-74
2020/12/11 05:43:16;;;;;;;31.83;17.42;;;;;;;0.43;87.79;99541.22;5005976;28;20022;-71
2020/12/11 05:45:50;;;;;;;33.33;18.10;;;;;;;0.43;87.50;99546.28;5005160;28;20395;-74
2020/12/11 05:48:16;;;;;;;32.67;20.20;;;;;;;0.45;88.35;99539.63;5024567;22;20534;-75
2020/12/11 05:50:41;;;;;;;31.08;18.30;;;;;;;0.46;87.87;99531.25;5003678;28;20037;-75
2020/12/11 05:53:07;;;;;;;31.63;18.45;;;;;;;0.47;87.86;99532.97;5005707;28;20436;-75
2020/12/11 05:55:32;;;;;;;33.45;19.13;;;;;;;0.50;87.44;99525.53;5006433;28;20490;-76
2020/12/11 05:57:58;;;;;;;34.50;19.63;;;;;;;0.52;87.98;99525.59;5006323;28;20026;-76
2020/12/11 06:00:25;;;;;;;34.63;19.60;;;;;;;0.53;87.92;99520.59;5006007;28;20022;-76
2020/12/11 06:02:52;;;;;;;34.50;19.57;;;;;;;0.51;88.26;99517.16;5006398;28;20033;-76
2020/12/11 06:05:20;;;;;;;26.97;17.00;;;;;;;0.51;87.48;99509.56;5006066;28;20055;-75
2020/12/11 06:07:47;;;;;;;35.57;19.83;;;;;;;0.55;88.45;99511.44;5006483;28;20025;-76
2020/12/11 06:10:23;;;;;;;31.53;19.53;;;;;;;0.52;87.78;99503.72;5006602;28;20022;-76
2020/12/11 06:12:49;;;;;;;33.45;20.08;;;;;;;0.52;88.64;99495.28;5004762;28;20053;-76
2020/12/11 06:15:28;;;;;;;36.10;19.13;;;;;;;0.50;88.27;99497.75;5006009;28;20408;-76
2020/12/11 06:18:03;;;;;;;35.40;20.17;;;;;;;0.55;89.04;99491.22;5005458;28;20026;-77
2020/12/11 06:20:29;;;;;;;35.03;19.53;;;;;;;0.55;87.95;99481.09;5004345;28;20579;-78
2020/12/11 06:23:24;;;;;;;34.70;20.35;;;;;;;0.58;87.41;99483.75;5006321;28;20144;-78
2020/12/11 06:25:51;;;;;;;30.47;17.73;;;;;;;0.60;87.42;99481.28;5007200;28;20049;-77
2020/12/11 06:28:35;;;;;;;34.03;19.00;;;;;;;0.59;88.25;99472.84;5006714;28;20045;-76
2020/12/11 06:31:04;;;;;;;35.83;20.00;;;;;;;0.60;88.05;99464.47;5004919;28;20062;-76
2020/12/11 06:33:31;;;;;;;38.17;20.77;;;;;;;0.56;88.34;99462.63;5004771;28;20033;-77
2020/12/11 06:35:58;;;;;;;37.63;19.60;;;;;;;0.57;88.91;99458.44;5006291;28;20026;-76
2020/12/11 06:38:43;;;;;;;37.57;21.03;;;;;;;0.53;88.00;99451.53;5005258;28;20026;-76
2020/12/11 06:41:10;;;;;;;33.73;19.77;;;;;;;0.54;88.34;99458.31;5006604;28;20379;-76
2020/12/11 06:43:39;;;;;;;33.80;19.80;;;;;;;0.55;88.37;99468.47;5005480;28;20037;-76
2020/12/11 06:46:26;;;;;;;36.90;20.90;;;;;;;0.53;88.07;99446.47;5007047;28;20417;-78
2020/12/11 06:49:14;;;;;;;32.85;17.17;;;;;;;0.56;88.17;99452.50;5008425;28;20037;-76
2020/12/11 06:51:45;;;;;;;33.70;19.63;;;;;;;0.58;88.41;99453.44;5010157;28;20030;-76
2020/12/11 06:54:11;;;;;;;33.70;18.93;;;;;;;0.59;88.17;99447.59;5009865;28;20030;-76
2020/12/11 06:56:42;;;;;;;33.92;19.67;;;;;;;0.58;88.46;99445.84;5008543;28;20022;-76
2020/12/11 06:59:23;;;;;;;32.73;19.83;;;;;;;0.63;88.29;99446.91;5008781;28;20090;-76
2020/12/11 07:01:53;;;;;;;35.97;20.13;;;;;;;0.64;88.10;99440.19;5009910;28;20444;-76
2020/12/11 07:04:19;;;;;;;31.97;18.97;;;;;;;0.65;88.18;99443.56;5008421;28;20022;-76
2020/12/11 07:06:51;;;;;;;40.70;19.50;;;;;;;0.69;87.90;99445.44;5009849;28;20079;-76
2020/12/11 07:09:18;;;;;;;35.43;20.17;;;;;;;0.70;88.16;99447.19;5010231;28;20429;-76
2020/12/11 07:11:43;;;;;;;;;;;;;;;0.73;87.84;99444.75;5010006;28;20118;-77
2020/12/11 07:14:09;;;;;;;33.97;18.83;;;;;;;0.75;87.87;99438.09;5008689;28;19917;-76
2020/12/11 07:16:44;;;;;;;29.90;18.73;;;;;;;0.79;88.30;99437.41;5009783;28;20036;-77
2020/12/11 07:19:10;;;;;;;33.70;20.87;;;;;;;0.80;88.58;99437.47;5009926;28;20113;-77
2020/12/11 07:21:37;;;;;;;33.57;18.17;;;;;;;0.83;87.93;99429.16;5008972;28;20083;-77
2020/12/11 07:24:04;;;;;;;31.83;19.80;;;;;;;0.84;88.26;99430.88;5009137;28;20057;-77
2020/12/11 07:26:31;;;;;;;32.07;18.60;;;;;;;0.86;88.50;99432.66;5007993;28;20060;-77
2020/12/11 07:29:01;;;;;;;;;;;;;;;0.88;88.48;99433.59;5008286;28;20045;-77
2020/12/11 07:31:26;;;;;;;32.37;18.50;;;;;;;0.90;88.62;99426.91;5009283;28;20294;-76
2020/12/11 07:33:52;;;;;;;34.10;19.70;;;;;;;0.90;89.23;99429.44;5008945;28;20083;-76
2020/12/11 07:36:17;;;;;;;39.85;19.90;;;;;;;0.88;89.19;99426.00;5011216;28;20489;-81
2020/12/11 07:38:43;;;;;;;34.40;19.50;;;;;;;0.91;89.24;99415.13;5011916;28;20037;-80
2020/12/11 07:41:10;;;;;;;31.33;20.13;;;;;;;0.86;88.83;99422.56;5014722;28;20058;-81
2020/12/11 07:43:45;;;;;;;34.13;19.33;;;;;;;0.88;89.52;99420.06;5014291;28;20029;-81
2020/12/11 07:46:11;;;;;;;36.53;20.87;;;;;;;0.88;89.46;99412.50;5015051;28;20146;-82
2020/12/11 07:48:46;;;;;;;;;;;;;;;0.88;89.39;99415.88;5019437;28;20036;-83
2020/12/11 07:51:12;;;;;;;37.00;19.00;;;;;;;0.91;89.24;99407.56;5015073;28;20275;-82
2020/12/11 07:53:42;;;;;;;37.17;19.20;;;;;;;0.90;89.01;99403.31;5016176;28;20029;-82
2020/12/11 07:56:10;;;;;;;32.77;18.70;;;;;;;0.94;88.90;99397.56;5016553;28;20513;-83
2020/12/11 07:58:35;;;;;;;33.47;19.20;;;;;;;0.94;89.35;99398.41;5016540;28;20029;-82
2020/12/11 08:01:02;;;;;;;34.65;19.40;;;;;;;0.98;89.53;99404.50;5014236;28;20109;-84
2020/12/11 08:03:27;;;;;;;39.25;20.67;;;;;;;0.97;89.89;99410.31;5015677;28;20030;-84
2020/12/11 08:05:53;;;;;;;39.13;20.15;;;;;;;0.97;90.01;99399.34;5012785;28;20098;-81
2020/12/11 08:08:25;;;;;;;35.17;21.30;;;;;;;0.98;90.49;99396.91;5013310;28;20033;-82
2020/12/11 08:10:50;;;;;;;40.93;23.07;;;;;;;0.96;90.65;99395.94;5013898;28;20423;-80
2020/12/11 08:13:17;;;;;;;39.45;20.52;;;;;;;0.91;91.45;99389.88;5015823;28;20034;-83
2020/12/11 08:15:44;;;;;;;42.67;23.57;;;;;;;0.92;92.43;99387.38;5016649;28;20289;-85
2020/12/11 08:18:20;;;;;;;43.43;25.57;;;;;;;0.84;92.44;99376.13;5003025;28;20026;-84
2020/12/11 08:20:55;;;;;;;44.20;24.10;;;;;;;0.86;92.82;99374.53;5019273;28;20030;-81
2020/12/11 08:23:25;;;;;;;51.77;25.43;;;;;;;0.88;93.16;99364.47;5018449;28;20032;-80
2020/12/11 08:26:09;;;;;;;51.63;25.80;;;;;;;0.88;93.40;99370.38;5016477;28;20026;-81
2020/12/11 08:28:36;;;;;;;51.43;25.93;;;;;;;0.90;93.47;99358.66;5016603;28;20053;-80
2020/12/11 08:31:11;;;;;;;;;;;;;;;0.89;93.77;99364.53;5018364;28;20030;-81
2020/12/11 08:33:36;;;;;;;54.13;27.30;;;;;;;0.86;93.71;99361.03;5015043;28;19913;-80
2020/12/11 08:36:01;;;;;;;55.90;27.97;;;;;;;0.86;93.97;99361.03;5016542;28;20030;-79
2020/12/11 08:38:27;;;;;;;47.70;25.17;;;;;;;0.87;93.98;99357.69;5015117;28;20373;-78
2020/12/11 08:40:52;;;;;;;54.28;27.23;;;;;;;0.93;94.19;99362.97;5016570;28;20018;-81
2020/12/11 08:43:28;;;;;;;55.77;27.83;;;;;;;0.92;94.09;99359.59;5014989;28;20443;-80
2020/12/11 08:49:02;;;;;;;52.63;28.67;;;;;;;0.96;93.91;99355.50;5012603;28;20090;-79
2020/12/11 08:51:28;;;;;;;49.70;27.90;;;;;;;1.00;93.86;99356.50;5005344;28;20033;-81
2020/12/11 08:53:54;;;;;;;53.43;26.97;;;;;;;1.05;93.90;99357.53;5011752;28;20018;-81
2020/12/11 08:56:20;;;;;;;57.47;28.10;;;;;;;1.08;93.77;99352.59;5013035;28;20032;-80
2020/12/11 08:58:45;;;;;;;41.50;22.90;;;;;;;1.08;93.27;99350.06;5012519;28;20048;-79
2020/12/11 09:01:10;;;;;;;47.05;23.70;;;;;;;1.13;92.59;99348.56;5012392;28;20026;-82
2020/12/11 09:03:35;;;;;;;41.63;22.00;;;;;;;1.17;92.56;99343.66;5013204;28;20022;-80
2020/12/11 09:06:01;;;;;;;38.53;21.83;;;;;;;1.21;91.69;99342.09;5008066;28;20487;-81
2020/12/11 09:08:26;;;;;;;31.83;18.38;;;;;;;1.31;91.69;99333.22;5010618;28;20036;-79
2020/12/11 09:10:51;;;;;;;39.70;21.57;;;;;;;1.33;91.31;99331.59;5008746;28;20078;-81
2020/12/11 09:13:16;;;;;;;43.85;23.27;;;;;;;1.36;91.46;99331.69;5004213;28;20770;-80
2020/12/11 09:15:42;;;;;;;37.30;21.87;;;;;;;1.40;91.33;99328.47;5012400;28;20121;-79
2020/12/11 09:18:07;;;;;;;36.30;20.00;;;;;;;1.44;90.68;99333.69;5014064;28;20296;-77
2020/12/11 09:20:32;;;;;;;37.78;20.95;;;;;;;1.46;90.86;99334.59;5010761;28;20718;-78
2020/12/11 09:22:58;;;;;;;37.28;21.65;;;;;;;1.49;91.09;99337.22;5011247;28;20029;-81
2020/12/11 09:25:23;;;;;;;38.63;20.15;;;;;;;1.51;90.87;99335.63;5012987;28;20425;-81
2020/12/11 09:27:49;;;;;;;43.03;22.88;;;;;;;1.51;90.68;99330.56;5011163;28;20109;-80
2020/12/11 09:30:23;;;;;;;36.85;20.00;;;;;;;1.53;90.92;99338.19;5012122;28;20021;-79
2020/12/11 09:32:56;;;;;;;31.80;18.23;;;;;;;1.58;90.46;99325.69;5009392;28;20033;-81
2020/12/11 09:35:24;;;;;;;34.33;18.97;;;;;;;1.62;90.07;99337.66;5009502;28;20029;-81
2020/12/11 09:37:50;;;;;;;31.47;18.10;;;;;;;1.66;90.49;99339.50;5007536;28;20063;-79
2020/12/11 09:40:17;;;;;;;32.00;17.97;;;;;;;1.65;89.93;99333.59;5009907;28;20046;-82
2020/12/11 09:45:34;;;;;;;34.43;19.40;;;;;;;1.68;90.65;99327.78;5010143;28;20036;-81
2020/12/11 09:48:09;;;;;;;34.07;18.97;;;;;;;1.66;90.73;99330.25;5007526;28;20037;-82
2020/12/11 09:50:52;;;;;;;35.73;19.80;;;;;;;1.68;91.33;99328.63;5008449;28;20030;-81
2020/12/11 09:53:48;;;;;;;35.33;19.57;;;;;;;1.66;91.51;99325.19;5008271;28;20056;-80
2020/12/11 09:56:20;;;;;;;32.00;18.17;;;;;;;1.65;91.56;99313.34;5009402;28;20048;-77
2020/12/11 09:58:46;;;;;;;34.23;19.50;;;;;;;1.66;91.81;99320.13;5011013;28;20079;-78
2020/12/11 10:01:12;;;;;;;38.73;20.80;;;;;;;1.69;92.54;99312.63;5008546;28;20037;-80
2020/12/11 10:03:40;;;;;;;30.05;16.77;;;;;;;1.66;92.39;99320.13;5011328;28;20021;-77
2020/12/11 10:06:06;;;;;;;40.60;21.10;;;;;;;1.65;92.79;99313.34;5007768;28;20019;-77
2020/12/11 10:08:31;;;;;;;38.40;22.95;;;;;;;1.65;93.19;99309.94;5009877;28;20473;-77
2020/12/11 10:10:57;;;;;;;41.17;22.50;;;;;;;1.66;93.54;99307.47;5010240;28;20032;-79
2020/12/11 10:13:22;;;;;;;44.90;22.17;;;;;;;1.63;93.56;99299.78;5009546;28;20049;-79
2020/12/11 10:15:47;;;;;;;40.17;22.33;;;;;;;1.66;93.85;99307.47;5008983;28;20782;-79
2020/12/11 10:18:12;;;;;;;42.10;23.73;;;;;;;1.65;94.17;99295.63;5009465;28;20475;-79
2020/12/11 10:20:39;;;;;;;52.45;25.30;;;;;;;1.68;94.54;99289.81;5009659;28;20034;-79
2020/12/11 10:23:04;;;;;;;47.27;25.23;;;;;;;1.70;94.74;99301.69;5009692;28;20028;-77
2020/12/11 10:25:29;;;;;;;46.10;26.30;;;;;;;1.68;94.62;99295.72;5011589;28;20437;-79
2020/12/11 10:27:55;;;;;;;46.80;24.95;;;;;;;1.72;94.54;99289.09;5013573;28;20022;-79
2020/12/11 10:30:21;;;;;;;48.83;24.33;;;;;;;1.71;94.62;99287.38;5011775;28;20050;-77
2020/12/11 10:32:47;;;;;;;50.50;24.38;;;;;;;1.77;94.82;99285.03;5013121;28;20034;-79
2020/12/11 10:35:12;;;;;;;46.30;23.25;;;;;;;1.74;94.76;99278.22;5011505;28;20558;-78
2020/12/11 10:37:38;;;;;;;42.58;23.40;;;;;;;1.75;94.59;99274.88;5013394;28;20057;-77
2020/12/11 10:40:04;;;;;;;45.47;24.30;;;;;;;1.81;94.80;99280.13;5012233;28;20030;-79
2020/12/11 10:42:30;;;;;;;;;;;;;;;1.81;94.41;99270.00;5014452;28;20034;-78
2020/12/11 10:44:56;;;;;;;41.20;22.30;;;;;;;1.83;94.53;99265.84;5011334;28;20286;-80
2020/12/11 10:47:21;;;;;;;44.65;25.15;;;;;;;1.95;94.33;99272.09;5012636;28;20108;-79
2020/12/11 10:49:46;;;;;;;42.20;23.35;;;;;;;1.98;94.13;99257.03;5011415;28;20025;-79
2020/12/11 10:52:11;;;;;;;41.80;23.03;;;;;;;1.94;94.05;99255.19;5013602;28;20101;-80
2020/12/11 10:54:37;;;;;;;43.37;25.53;;;;;;;1.95;94.26;99262.88;5012621;28;20284;-79
2020/12/11 10:57:02;;;;;;;50.67;26.00;;;;;;;2.00;94.55;99252.88;5010656;28;20060;-79
2020/12/11 10:59:27;;;;;;;48.28;24.30;;;;;;;1.97;94.66;99247.72;5011396;28;20485;-79
2020/12/11 11:01:53;;;;;;;45.70;25.77;;;;;;;1.98;94.72;99245.25;5010640;28;20542;-78
2020/12/11 11:04:18;;;;;;;47.53;25.37;;;;;;;1.99;94.97;99233.44;5010810;28;20026;-78
2020/12/11 11:07:04;;;;;;;49.97;27.58;;;;;;;2.03;94.97;99232.72;5013183;28;20108;-78
2020/12/11 11:09:37;;;;;;;49.97;26.40;;;;;;;2.09;94.70;99233.78;5013624;28;20051;-79
2020/12/11 11:27:39;;;;;;;47.23;24.23;;;;;;;2.29;94.68;99205.66;5010725;28;20822;-79
2020/12/11 11:30:04;;;;;;;45.53;27.20;;;;;;;2.34;95.07;99191.47;5009971;28;20022;-81
2020/12/11 11:32:29;;;;;;;46.50;24.88;;;;;;;2.35;94.45;99188.97;5011158;28;20568;-78
2020/12/11 11:34:55;;;;;;;44.88;24.98;;;;;;;2.31;94.66;99192.22;5009626;28;20101;-81
2020/12/11 11:37:21;;;;;;;47.47;25.50;;;;;;;2.35;94.87;99183.91;5012083;28;20475;-78
2020/12/11 11:39:48;;;;;;;47.60;25.47;;;;;;;2.39;94.62;99187.38;5012299;28;20022;-79
2020/12/11 11:42:13;;;;;;;43.97;25.93;;;;;;;2.38;94.35;99184.00;5010300;28;20018;-79
2020/12/11 11:44:47;;;;;;;44.83;24.80;;;;;;;2.43;94.87;99184.13;5010113;28;20029;-78
2020/12/11 11:47:12;;;;;;;44.37;25.00;;;;;;;2.45;94.92;99177.41;5011208;28;20268;-77
2020/12/11 11:49:53;;;;;;;40.10;22.50;;;;;;;2.47;94.34;99179.19;5010727;22;20421;-78